Time;durP1;ratioP1;P1;durP2;ratioP2;P2;SDS_P1;SDS_P2;PMS_P1;PMS_P2;Temp;Humidity;BMP_temperature;BMP_pressure;BME280_temperature;BME280_humidity;BME280_pressure;Samples;Min_cycle;Max_cycle;Signal;HPM_P1;HPM_P2
2021/05/20 05:06:21;;;;;;;2.05;1.95;;;;;;;13.04;99.56;98652.52;1825108;77;21014;-76
2021/05/20 05:08:50;;;;;;;1.70;1.17;;;;;;;13.10;99.56;98651.98;1817160;77;21023;-68
2021/05/20 05:11:17;;;;;;;3.15;1.10;;;;;;;13.17;99.23;98653.61;1820787;77;20959;-72
2021/05/20 05:33:38;;;;;;;2.15;1.20;;;;;;;13.61;95.71;98676.58;1748937;79;21103;-63
2021/05/20 05:36:06;;;;;;;0.90;0.90;;;;;;;13.66;95.28;98677.47;1743410;79;20935;-66
2021/05/20 07:35:18;;;;;;;1.37;1.27;;;;;;;14.39;88.68;98782.03;1789555;77;22275;-69
2021/05/20 07:37:45;;;;;;;1.60;1.50;;;;;;;14.38;88.14;98786.10;1819568;78;20904;-67
2021/05/20 07:40:14;;;;;;;2.35;1.30;;;;;;;14.36;88.81;98794.09;1793881;79;21516;-67
2021/05/20 07:42:42;;;;;;;3.22;1.55;;;;;;;14.40;89.01;98796.75;1786610;79;20982;-67
2021/05/20 07:45:11;;;;;;;1.40;1.30;;;;;;;14.46;89.12;98795.39;1788714;78;21079;-68
2021/05/20 07:47:39;;;;;;;2.75;1.60;;;;;;;14.53;89.12;98799.94;1819214;78;21026;-68
2021/05/20 07:50:09;;;;;;;1.90;1.80;;;;;;;14.61;89.42;98796.61;1788461;78;21047;-69
2021/05/20 07:52:36;;;;;;;1.95;1.55;;;;;;;14.71;89.17;98801.84;1801068;78;20999;-68
2021/05/20 07:55:05;;;;;;;1.55;1.45;;;;;;;14.77;88.29;98800.79;1753910;79;20999;-67
2021/05/20 07:57:32;;;;;;;5.58;1.90;;;;;;;14.76;88.26;98804.37;1791295;78;21480;-79
2021/05/20 07:59:59;;;;;;;4.72;2.25;;;;;;;14.74;87.85;98803.69;1790945;78;21034;-73
2021/05/20 08:05:07;;;;;;;2.12;1.95;;;;;;;14.71;87.96;98821.48;1787697;78;20967;-76
2021/05/20 08:07:35;;;;;;;3.20;1.75;;;;;;;14.70;87.99;98825.08;1819997;78;20976;-71
2021/05/20 08:12:44;;;;;;;1.80;1.70;;;;;;;14.73;88.13;98828.24;1773177;79;21548;-70
2021/05/20 08:15:11;;;;;;;1.77;1.60;;;;;;;14.76;87.67;98821.89;1819803;78;21584;-69
2021/05/20 08:17:38;;;;;;;3.80;1.30;;;;;;;14.83;88.18;98830.33;1770877;79;21015;-67
2021/05/20 08:20:07;;;;;;;1.55;1.45;;;;;;;14.92;88.10;98833.41;1787064;79;21607;-69
2021/05/20 08:22:35;;;;;;;5.33;1.55;;;;;;;14.95;88.13;98840.99;1788370;79;21051;-70
2021/05/20 08:25:03;;;;;;;1.92;1.10;;;;;;;15.01;88.22;98846.16;1792828;79;21620;-66
2021/05/20 08:27:33;;;;;;;2.15;2.00;;;;;;;15.07;87.96;98838.20;1815801;78;21001;-68
2021/05/20 08:30:07;;;;;;;1.85;1.62;;;;;;;15.07;87.03;98853.94;1817135;78;21006;-75
2021/05/20 08:32:34;;;;;;;1.95;1.85;;;;;;;15.09;87.11;98858.06;1794263;79;20952;-71
2021/05/20 08:35:01;;;;;;;1.65;1.55;;;;;;;15.13;86.83;98861.23;1813472;78;21046;-78
2021/05/20 08:37:28;;;;;;;1.67;1.57;;;;;;;15.12;86.26;98862.20;1814814;78;21031;-74
2021/05/20 08:39:56;;;;;;;1.57;1.47;;;;;;;15.13;86.40;98865.16;1816145;78;21451;-74
2021/05/20 08:42:23;;;;;;;2.25;1.90;;;;;;;15.14;85.74;98871.58;1808985;78;20920;-75
2021/05/20 08:44:50;;;;;;;1.98;1.70;;;;;;;15.13;84.85;98875.17;1805985;78;21225;-77
2021/05/20 08:47:20;;;;;;;1.22;1.22;;;;;;;15.10;84.71;98878.08;1790311;79;21314;-71
2021/05/20 08:49:48;;;;;;;2.62;2.42;;;;;;;15.09;84.94;98875.11;1786812;79;21056;-72
2021/05/20 08:52:16;;;;;;;1.40;1.32;;;;;;;15.07;85.06;98875.73;1805339;78;21032;-73
2021/05/20 08:54:45;;;;;;;1.20;1.20;;;;;;;15.04;84.50;98885.19;1799770;78;21561;-68
2021/05/20 08:57:13;;;;;;;1.07;1.07;;;;;;;14.94;84.34;98885.21;1791930;79;21073;-75
2021/05/20 08:59:41;;;;;;;2.52;2.30;;;;;;;14.88;85.03;98897.56;1812813;78;20986;-74
2021/05/20 09:02:08;;;;;;;1.60;1.40;;;;;;;14.83;84.99;98889.78;1803894;78;21014;-74
2021/05/20 09:04:35;;;;;;;1.90;1.60;;;;;;;14.76;85.25;98900.02;1770632;79;20984;-73
2021/05/20 09:07:09;;;;;;;1.60;1.40;;;;;;;14.70;85.80;98903.69;1799933;78;21565;-73
2021/05/20 09:09:35;;;;;;;4.53;1.57;;;;;;;14.62;85.88;98905.20;1784058;79;20914;-69
2021/05/20 09:12:02;;;;;;;1.40;1.35;;;;;;;14.50;85.88;98915.47;1785968;78;21787;-70
2021/05/20 09:14:40;;;;;;;1.55;1.45;;;;;;;14.37;85.92;98914.91;1819135;77;21616;-74
2021/05/20 09:17:15;;;;;;;1.77;1.67;;;;;;;14.28;86.38;98918.34;1821284;78;20874;-72
2021/05/20 09:19:59;;;;;;;2.05;1.85;;;;;;;14.18;86.36;98917.50;1812155;78;20999;-67
2021/05/20 09:22:26;;;;;;;1.70;1.60;;;;;;;14.10;86.54;98926.02;1782329;78;20991;-68
2021/05/20 09:24:58;;;;;;;1.50;1.40;;;;;;;14.03;86.56;98934.06;1812740;78;21461;-66
2021/05/20 09:27:36;;;;;;;1.75;1.65;;;;;;;13.99;86.97;98938.73;1780573;79;21011;-65
2021/05/20 09:30:21;;;;;;;1.32;1.30;;;;;;;13.92;86.98;98949.90;1788555;78;20980;-65
2021/05/20 09:33:00;;;;;;;2.12;1.82;;;;;;;13.84;86.88;98955.80;1800821;78;21074;-73
2021/05/20 09:35:37;;;;;;;2.02;1.92;;;;;;;13.76;87.25;98956.93;1815483;78;21560;-69
2021/05/20 09:38:20;;;;;;;2.47;2.27;;;;;;;13.69;87.53;98964.47;1811490;78;20988;-74
2021/05/20 09:41:02;;;;;;;3.70;1.70;;;;;;;13.62;87.73;98973.80;1780804;79;21914;-69
2021/05/20 09:43:34;;;;;;;1.67;1.57;;;;;;;13.57;88.21;98972.56;1801334;78;20932;-76
2021/05/20 09:46:06;;;;;;;4.72;1.47;;;;;;;13.54;88.23;98976.27;1813289;78;21073;-73
2021/05/20 09:48:36;;;;;;;2.37;1.75;;;;;;;13.45;87.75;98982.27;1767689;79;20960;-73
2021/05/20 09:51:03;;;;;;;1.25;1.25;;;;;;;13.40;87.94;98986.23;1765380;79;21094;-72
2021/05/20 09:53:32;;;;;;;1.60;1.50;;;;;;;13.36;87.22;98996.12;1793088;78;21030;-76
2021/05/20 09:56:01;;;;;;;1.17;1.17;;;;;;;13.34;86.95;99005.88;1807041;78;21070;-73
2021/05/20 09:58:32;;;;;;;1.60;1.50;;;;;;;13.32;86.96;98998.64;1773899;79;20999;-73
2021/05/20 10:01:00;;;;;;;1.70;1.60;;;;;;;13.31;87.10;99006.96;1808887;78;20975;-69
2021/05/20 10:03:34;;;;;;;1.80;1.70;;;;;;;13.33;87.39;99004.22;1798676;78;21054;-70
2021/05/20 10:06:01;;;;;;;2.60;1.35;;;;;;;13.34;88.19;99015.03;1812491;78;21007;-68
2021/05/20 10:08:30;;;;;;;3.12;1.42;;;;;;;13.38;89.48;99016.91;1783374;79;21038;-69
2021/05/20 10:11:01;;;;;;;1.82;1.22;;;;;;;13.41;89.72;99020.09;1782329;79;21051;-69
2021/05/20 10:13:29;;;;;;;1.37;1.20;;;;;;;13.46;89.67;99021.02;1795528;79;21017;-70
2021/05/20 10:15:57;;;;;;;1.87;1.77;;;;;;;13.51;89.84;99024.08;1801628;78;21824;-71
2021/05/20 10:18:28;;;;;;;1.35;1.20;;;;;;;13.54;89.52;99031.67;1796295;78;21053;-69
2021/05/20 10:21:01;;;;;;;2.50;1.10;;;;;;;13.52;88.90;99032.28;1781452;79;21039;-70
2021/05/20 10:23:28;;;;;;;3.83;1.22;;;;;;;13.52;88.87;99042.27;1799840;78;21015;-71
2021/05/20 10:25:57;;;;;;;1.65;1.45;;;;;;;13.54;88.69;99047.37;1778797;78;20931;-70
2021/05/20 10:28:25;;;;;;;2.15;1.60;;;;;;;13.52;88.46;99046.66;1817999;78;21049;-72
2021/05/20 10:30:54;;;;;;;3.62;1.52;;;;;;;13.51;87.78;99055.47;1798982;79;20978;-71
2021/05/20 10:33:27;;;;;;;1.37;1.30;;;;;;;13.46;87.61;99056.33;1800560;78;20960;-71
2021/05/20 10:35:57;;;;;;;1.30;1.20;;;;;;;13.41;87.55;99059.80;1767544;81;22205;-72
2021/05/20 10:38:35;;;;;;;2.17;1.70;;;;;;;13.40;87.19;99066.81;1766887;81;21023;-71
2021/05/20 10:41:13;;;;;;;1.70;1.60;;;;;;;13.41;87.33;99066.34;1767308;81;21486;-72
2021/05/20 10:43:41;;;;;;;1.17;1.17;;;;;;;13.44;86.84;99059.06;1767263;81;20944;-68
2021/05/20 10:46:13;;;;;;;2.10;2.00;;;;;;;13.46;86.33;99058.94;1790457;79;20973;-71
2021/05/20 10:48:57;;;;;;;2.12;1.92;;;;;;;13.45;85.62;99058.11;1799286;79;20972;-70
2021/05/20 10:51:30;;;;;;;2.08;1.37;;;;;;;13.46;85.10;99066.79;1798996;79;20908;-69
2021/05/20 10:54:06;;;;;;;1.62;1.52;;;;;;;13.51;84.90;99076.39;1767351;81;21022;-68
2021/05/20 10:56:42;;;;;;;1.37;1.35;;;;;;;13.54;84.25;99068.29;1794448;79;21050;-70
2021/05/20 10:59:37;;;;;;;1.95;1.75;;;;;;;13.59;83.84;99072.66;1810094;78;27871;-70
2021/05/20 11:02:04;;;;;;;1.72;1.62;;;;;;;13.67;83.68;99066.28;1781010;79;21016;-71
2021/05/20 11:04:39;;;;;;;3.77;1.85;;;;;;;13.90;84.40;99061.25;1813180;78;20912;-71
2021/05/20 11:07:07;;;;;;;6.75;2.30;;;;;;;14.15;83.31;99055.21;1821340;78;21500;-70
2021/05/20 11:09:48;;;;;;;2.80;2.02;;;;;;;14.34;82.30;99048.73;1814760;78;20888;-70
2021/05/20 11:12:17;;;;;;;2.22;1.72;;;;;;;14.53;80.54;99052.72;1805471;78;21078;-68
2021/05/20 11:14:46;;;;;;;1.65;1.55;;;;;;;14.71;79.72;99049.45;1807943;78;21058;-70
2021/05/20 11:17:33;;;;;;;3.08;1.87;;;;;;;14.90;79.62;99056.00;1818045;78;21079;-78
2021/05/20 11:20:26;;;;;;;;;;;;;;;15.06;78.81;99058.92;1814990;78;21051;-68
2021/05/20 11:23:20;;;;;;;1.85;1.40;;;;;;;15.26;78.69;99058.41;1813967;78;20483;-71
2021/05/20 11:26:01;;;;;;;1.75;1.60;;;;;;;15.47;78.30;99064.33;1772812;80;22374;-73
2021/05/20 11:28:28;;;;;;;5.22;2.15;;;;;;;15.66;75.27;99060.38;1774636;79;21090;-74
2021/05/20 11:30:59;;;;;;;5.15;2.17;;;;;;;15.74;74.01;99064.91;1784342;79;21079;-71
2021/05/20 11:33:31;;;;;;;5.33;2.15;;;;;;;15.76;73.14;99064.77;1809515;78;21225;-68
2021/05/20 11:38:32;;;;;;;2.08;1.60;;;;;;;15.83;73.40;99063.23;1820294;78;21648;-70
2021/05/20 11:41:19;;;;;;;4.30;1.47;;;;;;;15.90;73.18;99061.70;1811048;78;21070;-70
2021/05/20 11:43:47;;;;;;;1.50;1.40;;;;;;;16.04;73.20;99066.95;1808842;78;21914;-72
2021/05/20 11:46:23;;;;;;;2.27;1.50;;;;;;;16.18;72.58;99065.17;1807167;78;21466;-71
2021/05/20 11:49:05;;;;;;;1.40;1.27;;;;;;;16.32;72.83;99065.53;1812887;78;21075;-67
2021/05/20 11:51:49;;;;;;;5.58;1.30;;;;;;;16.45;71.76;99072.22;1809122;78;20942;-66
2021/05/20 11:54:18;;;;;;;1.27;1.25;;;;;;;16.52;70.09;99068.03;1808399;78;21111;-72
2021/05/20 11:56:52;;;;;;;1.27;1.22;;;;;;;16.59;69.19;99075.67;1809922;78;20959;-70
2021/05/20 11:59:39;;;;;;;3.65;1.40;;;;;;;16.65;68.69;99080.38;1811916;78;21693;-69
2021/05/20 12:02:22;;;;;;;1.50;1.40;;;;;;;16.62;67.30;99080.63;1816268;78;21702;-69
2021/05/20 12:05:06;;;;;;;2.47;1.27;;;;;;;16.57;67.93;99086.81;1804237;78;20955;-70
2021/05/20 12:07:39;;;;;;;3.62;1.70;;;;;;;16.55;67.45;99084.82;1790189;78;21621;-69
2021/05/20 12:10:23;;;;;;;7.40;1.50;;;;;;;16.44;65.93;99091.58;1823416;78;21090;-68
2021/05/20 12:13:01;;;;;;;2.47;1.37;;;;;;;16.25;65.86;99092.52;1800952;78;21522;-70
2021/05/20 12:15:29;;;;;;;2.02;1.50;;;;;;;16.06;66.80;99101.77;1810900;78;20971;-73
2021/05/20 12:17:59;;;;;;;3.45;1.77;;;;;;;15.89;67.08;99102.88;1784848;78;20976;-71
2021/05/20 12:20:27;;;;;;;2.42;1.90;;;;;;;15.75;67.17;99102.00;1811478;78;21521;-70
2021/05/20 12:22:54;;;;;;;3.40;1.50;;;;;;;15.65;67.35;99099.39;1811624;78;21549;-70
2021/05/20 12:25:26;;;;;;;1.95;1.75;;;;;;;15.60;67.60;99100.78;1807688;78;21432;-68
2021/05/20 12:27:55;;;;;;;1.75;1.65;;;;;;;15.64;67.74;99102.16;1814705;78;20993;-74
2021/05/20 12:30:34;;;;;;;2.87;1.40;;;;;;;15.71;68.72;99099.31;1811019;78;20999;-70
2021/05/20 12:33:07;;;;;;;3.12;1.42;;;;;;;15.83;68.62;99102.13;1803124;78;21059;-70
2021/05/20 12:35:43;;;;;;;1.47;1.37;;;;;;;15.92;67.21;99110.47;1798592;78;22029;-72
2021/05/20 12:38:23;;;;;;;3.30;1.20;;;;;;;15.96;66.63;99105.28;1811561;78;21116;-71
2021/05/20 12:40:56;;;;;;;1.27;1.15;;;;;;;15.95;66.40;99113.30;1800408;78;21553;-73
2021/05/20 12:43:34;;;;;;;1.40;1.10;;;;;;;15.91;66.58;99120.62;1799094;78;20940;-69
2021/05/20 12:46:06;;;;;;;1.85;1.20;;;;;;;15.83;66.26;99128.86;1812711;78;20956;-74
2021/05/20 12:48:37;;;;;;;1.92;1.10;;;;;;;15.79;66.26;99119.13;1810090;78;21620;-74
2021/05/20 12:51:18;;;;;;;1.87;1.30;;;;;;;15.79;64.86;99130.11;1816194;78;21006;-70
2021/05/20 12:54:07;;;;;;;4.53;2.22;;;;;;;15.79;64.86;99121.75;1805154;78;21056;-76
2021/05/20 12:56:41;;;;;;;2.30;1.42;;;;;;;15.81;65.85;99120.30;1810641;78;20999;-72
2021/05/20 12:59:14;;;;;;;2.83;1.25;;;;;;;15.86;65.99;99124.16;1817393;78;21654;-69
2021/05/20 13:01:48;;;;;;;3.60;1.10;;;;;;;15.87;64.76;99121.88;1814011;78;21075;-73
2021/05/20 13:04:24;;;;;;;2.05;1.00;;;;;;;15.91;64.40;99111.92;1808578;78;22016;-78
2021/05/20 13:07:06;;;;;;;6.75;1.15;;;;;;;15.93;63.80;99117.37;1818891;78;21045;-71
2021/05/20 13:09:35;;;;;;;0.88;0.88;;;;;;;15.92;62.76;99122.28;1807641;78;21580;-68
2021/05/20 13:12:08;;;;;;;3.75;0.80;;;;;;;15.92;62.13;99126.23;1813117;78;21000;-69
2021/05/20 13:14:45;;;;;;;6.87;1.50;;;;;;;15.95;61.86;99113.30;1815016;78;20979;-70
2021/05/20 13:22:30;;;;;;;1.60;1.02;;;;;;;16.08;61.29;99123.47;1779197;78;20956;-69
2021/05/20 13:25:07;;;;;;;3.30;1.17;;;;;;;16.08;60.92;99126.09;1797847;78;21544;-70
2021/05/20 13:27:35;;;;;;;7.37;1.20;;;;;;;16.04;60.53;99127.34;1758461;79;20956;-67
2021/05/20 13:30:19;;;;;;;1.67;0.80;;;;;;;15.98;61.24;99108.59;1794714;78;21541;-68
2021/05/20 13:32:55;;;;;;;2.02;1.05;;;;;;;15.92;60.19;99117.52;1797409;78;21019;-68
2021/05/20 13:35:22;;;;;;;7.10;1.10;;;;;;;15.83;60.34;99120.50;1787927;79;21046;-69
2021/05/20 13:37:50;;;;;;;1.30;0.90;;;;;;;15.77;61.45;99111.05;1786593;79;21462;-67
2021/05/20 13:40:21;;;;;;;9.55;1.00;;;;;;;15.73;62.09;99117.06;1815581;78;21580;-70
2021/05/20 13:42:48;;;;;;;5.12;1.15;;;;;;;15.72;61.50;99125.08;1826714;78;21110;-68
2021/05/20 13:45:16;;;;;;;1.70;0.72;;;;;;;15.67;61.28;99117.63;1812905;78;21039;-67
2021/05/20 13:47:45;;;;;;;1.27;0.78;;;;;;;15.64;61.13;99120.52;1797202;79;21042;-67
2021/05/20 13:50:13;;;;;;;2.08;0.95;;;;;;;15.64;61.66;99121.36;1798436;78;21419;-66
2021/05/20 13:52:43;;;;;;;3.60;1.10;;;;;;;15.71;61.69;99127.36;1779066;79;20948;-69
2021/05/20 13:55:20;;;;;;;1.17;0.80;;;;;;;15.80;60.68;99130.45;1811012;78;21139;-68
2021/05/20 13:57:50;;;;;;;3.60;1.27;;;;;;;15.86;59.81;99133.83;1813436;78;21533;-70
2021/05/20 14:00:27;;;;;;;3.27;1.00;;;;;;;15.85;59.48;99154.49;1798168;78;20916;-71
2021/05/20 14:02:54;;;;;;;1.60;0.80;;;;;;;15.76;60.09;99152.22;1823451;78;21281;-68
2021/05/20 14:05:22;;;;;;;5.15;1.00;;;;;;;15.66;59.43;99159.27;1785186;79;21576;-69
